sensor_id;sensor_type;location;lat;lon;timestamp;pressure;altitude;pressure_sealevel;temperature;humidity
67345;BME280;54230;52.402;6.276;2023-04-08T00:00:00;102280.0;;;7.4;71.9
67345;BME280;54230;52.402;6.276;2023-04-08T00:05:00;102290.0;;;7.5;72.6
67345;BME280;54230;52.402;6.276;2023-04-08T00:10:00;102280.0;;;7.5;72.1
67345;BME280;54230;52.402;6.276;2023-04-08T00:15:00;102290.0;;;7.5;71.2
67345;BME280;54230;52.402;6.276;2023-04-08T00:20:00;102290.0;;;7.6;71.1
67345;BME280;54230;52.402;6.276;2023-04-08T00:25:00;102290.0;;;7.6;71.1
67345;BME280;54230;52.402;6.276;2023-04-08T00:30:00;102300.0;;;7.5;70.5
67345;BME280;54230;52.402;6.276;2023-04-08T00:35:00;102300.0;;;7.5;69.5
67345;BME280;54230;52.402;6.276;2023-04-08T00:40:00;102310.0;;;7.3;68.8
67345;BME280;54230;52.402;6.276;2023-04-08T00:45:00;102310.0;;;7.3;69.3
67345;BME280;54230;52.402;6.276;2023-04-08T00:50:00;102310.0;;;7.2;68.8
67345;BME280;54230;52.402;6.276;2023-04-08T00:55:02;102310.0;;;7.1;68.8
67345;BME280;54230;52.402;6.276;2023-04-08T01:00:00;102310.0;;;7.0;69.1
67345;BME280;54230;52.402;6.276;2023-04-08T01:05:02;102320.0;;;6.8;68.3
67345;BME280;54230;52.402;6.276;2023-04-08T01:10:02;102320.0;;;6.6;68.3
67345;BME280;54230;52.402;6.276;2023-04-08T01:15:04;102320.0;;;6.6;68.9
67345;BME280;54230;52.402;6.276;2023-04-08T01:20:02;102320.0;;;6.5;68.9
67345;BME280;54230;52.402;6.276;2023-04-08T01:25:04;102330.0;;;6.4;68.7
67345;BME280;54230;52.402;6.276;2023-04-08T01:30:02;102330.0;;;6.2;68.7
67345;BME280;54230;52.402;6.276;2023-04-08T01:35:01;102330.0;;;6.1;69.1
67345;BME280;54230;52.402;6.276;2023-04-08T01:40:01;102330.0;;;6.1;69.1
67345;BME280;54230;52.402;6.276;2023-04-08T01:45:01;102340.0;;;6.1;69.7
67345;BME280;54230;52.402;6.276;2023-04-08T01:50:00;102340.0;;;6.1;69.7
67345;BME280;54230;52.402;6.276;2023-04-08T01:55:00;102340.0;;;6.2;70.8
67345;BME280;54230;52.402;6.276;2023-04-08T02:00:04;102340.0;;;6.2;70.2
67345;BME280;54230;52.402;6.276;2023-04-08T02:05:00;102340.0;;;6.3;71.5
67345;BME280;54230;52.402;6.276;2023-04-08T02:10:00;102340.0;;;6.2;70.6
67345;BME280;54230;52.402;6.276;2023-04-08T02:15:00;102340.0;;;6.2;70.3
67345;BME280;54230;52.402;6.276;2023-04-08T02:20:04;102350.0;;;6.1;69.4
67345;BME280;54230;52.402;6.276;2023-04-08T02:25:01;102350.0;;;5.8;70.1
67345;BME280;54230;52.402;6.276;2023-04-08T02:30:02;102350.0;;;5.7;70.1
67345;BME280;54230;52.402;6.276;2023-04-08T02:35:01;102360.0;;;5.6;70.5
67345;BME280;54230;52.402;6.276;2023-04-08T02:40:00;102360.0;;;5.6;71.1
67345;BME280;54230;52.402;6.276;2023-04-08T02:45:00;102360.0;;;5.5;71.3
67345;BME280;54230;52.402;6.276;2023-04-08T02:50:00;102370.0;;;5.5;71.9
67345;BME280;54230;52.402;6.276;2023-04-08T02:55:00;102360.0;;;5.7;71.9
67345;BME280;54230;52.402;6.276;2023-04-08T03:00:00;102370.0;;;5.8;71.7
67345;BME280;54230;52.402;6.276;2023-04-08T03:05:00;102370.0;;;5.8;71.4
67345;BME280;54230;52.402;6.276;2023-04-08T03:10:02;102380.0;;;5.5;71.2
67345;BME280;54230;52.402;6.276;2023-04-08T03:15:00;102380.0;;;5.4;71.5
67345;BME280;54230;52.402;6.276;2023-04-08T03:20:00;102390.0;;;5.3;71.8
67345;BME280;54230;52.402;6.276;2023-04-08T03:25:00;102380.0;;;5.2;72.1
67345;BME280;54230;52.402;6.276;2023-04-08T03:30:00;102390.0;;;5.3;72.7
67345;BME280;54230;52.402;6.276;2023-04-08T03:35:00;102390.0;;;5.4;73.2
67345;BME280;54230;52.402;6.276;2023-04-08T03:40:00;102400.0;;;5.6;73.5
67345;BME280;54230;52.402;6.276;2023-04-08T03:45:00;102390.0;;;5.8;73.4
67345;BME280;54230;52.402;6.276;2023-04-08T03:50:00;102400.0;;;5.9;73.9
67345;BME280;54230;52.402;6.276;2023-04-08T03:55:00;102400.0;;;5.9;73.5
67345;BME280;54230;52.402;6.276;2023-04-08T04:00:00;102400.0;;;5.6;72.6
67345;BME280;54230;52.402;6.276;2023-04-08T04:05:00;102400.0;;;5.6;74.5
67345;BME280;54230;52.402;6.276;2023-04-08T04:10:00;102409.99999999999;;;5.5;74.5
67345;BME280;54230;52.402;6.276;2023-04-08T04:15:00;102409.99999999999;;;5.4;74.8
67345;BME280;54230;52.402;6.276;2023-04-08T04:20:02;102409.99999999999;;;5.4;74.8
67345;BME280;54230;52.402;6.276;2023-04-08T04:25:00;102420.0;;;5.6;74.7
67345;BME280;54230;52.402;6.276;2023-04-08T04:30:00;102420.0;;;5.7;75.2
67345;BME280;54230;52.402;6.276;2023-04-08T04:35:00;102430.0;;;5.6;75.1
67345;BME280;54230;52.402;6.276;2023-04-08T04:40:00;102440.00000000001;;;5.6;75.1
67345;BME280;54230;52.402;6.276;2023-04-08T04:45:00;102440.00000000001;;;5.5;75.2
67345;BME280;54230;52.402;6.276;2023-04-08T04:50:00;102440.00000000001;;;5.5;75.5
67345;BME280;54230;52.402;6.276;2023-04-08T04:55:00;102450.0;;;5.4;75.1
67345;BME280;54230;52.402;6.276;2023-04-08T05:00:00;102459.99999999999;;;5.3;75.2
67345;BME280;54230;52.402;6.276;2023-04-08T05:05:00;102459.99999999999;;;5.3;75.8
67345;BME280;54230;52.402;6.276;2023-04-08T05:10:00;102459.99999999999;;;5.3;76.0
67345;BME280;54230;52.402;6.276;2023-04-08T05:15:00;102459.99999999999;;;5.2;76.7
67345;BME280;54230;52.402;6.276;2023-04-08T05:20:00;102470.0;;;5.2;76.5
67345;BME280;54230;52.402;6.276;2023-04-08T05:25:00;102470.0;;;5.3;76.0
67345;BME280;54230;52.402;6.276;2023-04-08T05:30:00;102480.0;;;5.3;76.6
67345;BME280;54230;52.402;6.276;2023-04-08T05:35:01;102470.0;;;5.4;76.5
67345;BME280;54230;52.402;6.276;2023-04-08T05:40:00;102470.0;;;5.3;76.0
67345;BME280;54230;52.402;6.276;2023-04-08T05:45:00;102480.0;;;5.4;76.1
67345;BME280;54230;52.402;6.276;2023-04-08T05:50:00;102480.0;;;5.6;76.0
67345;BME280;54230;52.402;6.276;2023-04-08T05:55:00;102480.0;;;5.9;76.8
67345;BME280;54230;52.402;6.276;2023-04-08T06:00:00;102490.00000000001;;;5.9;75.4
67345;BME280;54230;52.402;6.276;2023-04-08T06:05:00;102480.0;;;5.9;76.0
67345;BME280;54230;52.402;6.276;2023-04-08T06:10:00;102490.00000000001;;;6.2;76.6
67345;BME280;54230;52.402;6.276;2023-04-08T06:15:00;102490.00000000001;;;6.4;75.4
67345;BME280;54230;52.402;6.276;2023-04-08T06:20:00;102500.0;;;6.6;76.2
67345;BME280;54230;52.402;6.276;2023-04-08T06:25:00;102509.99999999999;;;6.7;75.2
67345;BME280;54230;52.402;6.276;2023-04-08T06:30:00;102520.0;;;7.1;75.9
67345;BME280;54230;52.402;6.276;2023-04-08T06:35:00;102530.0;;;7.6;76.1
67345;BME280;54230;52.402;6.276;2023-04-08T06:40:00;102530.0;;;7.9;74.7
67345;BME280;54230;52.402;6.276;2023-04-08T06:45:00;102540.00000000001;;;7.8;74.4
67345;BME280;54230;52.402;6.276;2023-04-08T06:50:00;102550.0;;;7.9;75.3
67345;BME280;54230;52.402;6.276;2023-04-08T06:55:00;102550.0;;;8.1;75.8
67345;BME280;54230;52.402;6.276;2023-04-08T07:00:00;102559.99999999999;;;8.2;76.0
67345;BME280;54230;52.402;6.276;2023-04-08T07:05:00;102559.99999999999;;;8.3;76.0
67345;BME280;54230;52.402;6.276;2023-04-08T07:10:00;102570.0;;;8.3;76.0
67345;BME280;54230;52.402;6.276;2023-04-08T07:15:00;102570.0;;;8.3;76.0
67345;BME280;54230;52.402;6.276;2023-04-08T07:20:00;102570.0;;;8.1;76.6
67345;BME280;54230;52.402;6.276;2023-04-08T07:25:00;102570.0;;;7.8;76.8
67345;BME280;54230;52.402;6.276;2023-04-08T07:30:00;102580.0;;;7.7;77.5
67345;BME280;54230;52.402;6.276;2023-04-08T07:35:00;102580.0;;;7.8;77.9
67345;BME280;54230;52.402;6.276;2023-04-08T07:40:00;102590.00000000001;;;8.2;78.2
67345;BME280;54230;52.402;6.276;2023-04-08T07:45:00;102590.00000000001;;;8.5;77.9
67345;BME280;54230;52.402;6.276;2023-04-08T07:50:00;102600.0;;;9.0;77.6
67345;BME280;54230;52.402;6.276;2023-04-08T07:55:00;102600.0;;;9.0;76.7
67345;BME280;54230;52.402;6.276;2023-04-08T08:00:00;102600.0;;;9.2;75.8
67345;BME280;54230;52.402;6.276;2023-04-08T08:05:00;102609.99999999999;;;9.5;75.6
67345;BME280;54230;52.402;6.276;2023-04-08T08:10:00;102609.99999999999;;;9.8;74.4
67345;BME280;54230;52.402;6.276;2023-04-08T08:15:00;102609.99999999999;;;10.0;74.1
67345;BME280;54230;52.402;6.276;2023-04-08T08:20:00;102609.99999999999;;;10.9;71.9
67345;BME280;54230;52.402;6.276;2023-04-08T08:25:00;102609.99999999999;;;11.7;70.3
67345;BME280;54230;52.402;6.276;2023-04-08T08:30:00;102609.99999999999;;;11.9;68.4
67345;BME280;54230;52.402;6.276;2023-04-08T08:35:00;102620.0;;;12.1;66.2
67345;BME280;54230;52.402;6.276;2023-04-08T08:40:00;102620.0;;;12.2;66.7
67345;BME280;54230;52.402;6.276;2023-04-08T08:45:00;102620.0;;;12.5;64.4
67345;BME280;54230;52.402;6.276;2023-04-08T08:50:01;102630.0;;;12.4;64.6
67345;BME280;54230;52.402;6.276;2023-04-08T08:55:00;102630.0;;;13.0;64.0
67345;BME280;54230;52.402;6.276;2023-04-08T09:00:00;102620.0;;;13.4;62.3
67345;BME280;54230;52.402;6.276;2023-04-08T09:05:01;102609.99999999999;;;13.8;61.6
67345;BME280;54230;52.402;6.276;2023-04-08T09:10:00;102609.99999999999;;;14.1;60.4
67345;BME280;54230;52.402;6.276;2023-04-08T09:15:02;102620.0;;;14.3;60.1
67345;BME280;54230;52.402;6.276;2023-04-08T09:20:04;102630.0;;;14.2;59.1
67345;BME280;54230;52.402;6.276;2023-04-08T09:30:12;102630.0;;;14.1;58.3
67345;BME280;54230;52.402;6.276;2023-04-08T09:35:00;102640.00000000001;;;14.1;57.9
67345;BME280;54230;52.402;6.276;2023-04-08T09:40:00;102640.00000000001;;;14.2;58.2
67345;BME280;54230;52.402;6.276;2023-04-08T09:45:03;102640.00000000001;;;14.1;57.5
67345;BME280;54230;52.402;6.276;2023-04-08T09:50:01;102640.00000000001;;;14.1;57.7
67345;BME280;54230;52.402;6.276;2023-04-08T09:55:01;102640.00000000001;;;13.8;57.6
67345;BME280;54230;52.402;6.276;2023-04-08T10:00:06;102650.0;;;13.2;57.9
67345;BME280;54230;52.402;6.276;2023-04-08T10:05:00;102650.0;;;12.9;59.4
67345;BME280;54230;52.402;6.276;2023-04-08T10:10:01;102640.00000000001;;;12.7;60.1
67345;BME280;54230;52.402;6.276;2023-04-08T10:20:01;102640.00000000001;;;13.4;59.5
67345;BME280;54230;52.402;6.276;2023-04-08T10:30:00;102630.0;;;14.2;56.9
67345;BME280;54230;52.402;6.276;2023-04-08T10:35:00;102640.00000000001;;;14.4;56.4
67345;BME280;54230;52.402;6.276;2023-04-08T10:40:00;102630.0;;;14.5;56.1
67345;BME280;54230;52.402;6.276;2023-04-08T10:45:01;102630.0;;;14.4;55.5
67345;BME280;54230;52.402;6.276;2023-04-08T10:50:00;102630.0;;;14.5;55.0
67345;BME280;54230;52.402;6.276;2023-04-08T10:55:01;102630.0;;;14.9;54.2
67345;BME280;54230;52.402;6.276;2023-04-08T11:00:01;102620.0;;;14.8;53.6
67345;BME280;54230;52.402;6.276;2023-04-08T11:05:00;102630.0;;;15.1;54.2
67345;BME280;54230;52.402;6.276;2023-04-08T11:10:01;102640.00000000001;;;15.3;53.6
67345;BME280;54230;52.402;6.276;2023-04-08T11:15:00;102630.0;;;15.5;53.1
67345;BME280;54230;52.402;6.276;2023-04-08T11:20:00;102630.0;;;15.3;51.2
67345;BME280;54230;52.402;6.276;2023-04-08T11:25:01;102640.00000000001;;;15.0;52.2
67345;BME280;54230;52.402;6.276;2023-04-08T11:30:01;102630.0;;;14.8;52.9
67345;BME280;54230;52.402;6.276;2023-04-08T11:35:00;102630.0;;;14.5;53.5
67345;BME280;54230;52.402;6.276;2023-04-08T11:40:00;102620.0;;;14.5;54.5
67345;BME280;54230;52.402;6.276;2023-04-08T11:45:00;102630.0;;;14.8;54.6
67345;BME280;54230;52.402;6.276;2023-04-08T11:50:00;102620.0;;;15.0;53.9
67345;BME280;54230;52.402;6.276;2023-04-08T11:55:00;102630.0;;;15.1;53.1
67345;BME280;54230;52.402;6.276;2023-04-08T12:00:00;102630.0;;;15.0;54.4
67345;BME280;54230;52.402;6.276;2023-04-08T12:05:00;102620.0;;;14.9;53.8
67345;BME280;54230;52.402;6.276;2023-04-08T12:10:00;102620.0;;;14.7;54.4
67345;BME280;54230;52.402;6.276;2023-04-08T12:15:00;102620.0;;;14.7;54.5
67345;BME280;54230;52.402;6.276;2023-04-08T12:20:00;102630.0;;;14.9;54.9
67345;BME280;54230;52.402;6.276;2023-04-08T12:25:00;102630.0;;;14.9;54.5
67345;BME280;54230;52.402;6.276;2023-04-08T12:30:01;102620.0;;;15.1;54.5
67345;BME280;54230;52.402;6.276;2023-04-08T12:35:00;102620.0;;;15.3;54.0
67345;BME280;54230;52.402;6.276;2023-04-08T12:40:00;102609.99999999999;;;15.4;54.6
67345;BME280;54230;52.402;6.276;2023-04-08T12:45:00;102609.99999999999;;;15.6;54.4
67345;BME280;54230;52.402;6.276;2023-04-08T12:50:00;102609.99999999999;;;15.7;54.7
67345;BME280;54230;52.402;6.276;2023-04-08T12:55:00;102620.0;;;16.2;53.4
67345;BME280;54230;52.402;6.276;2023-04-08T13:00:00;102620.0;;;16.4;52.8
67345;BME280;54230;52.402;6.276;2023-04-08T13:05:00;102609.99999999999;;;16.3;52.8
67345;BME280;54230;52.402;6.276;2023-04-08T13:10:00;102609.99999999999;;;16.2;53.5
67345;BME280;54230;52.402;6.276;2023-04-08T13:15:00;102609.99999999999;;;16.5;52.9
67345;BME280;54230;52.402;6.276;2023-04-08T13:20:00;102600.0;;;16.5;52.6
67345;BME280;54230;52.402;6.276;2023-04-08T13:25:00;102600.0;;;16.2;53.3
67345;BME280;54230;52.402;6.276;2023-04-08T13:30:00;102609.99999999999;;;16.4;53.7
67345;BME280;54230;52.402;6.276;2023-04-08T13:35:00;102600.0;;;16.8;52.9
67345;BME280;54230;52.402;6.276;2023-04-08T13:40:00;102600.0;;;17.1;52.4
67345;BME280;54230;52.402;6.276;2023-04-08T13:45:00;102609.99999999999;;;17.4;51.6
67345;BME280;54230;52.402;6.276;2023-04-08T13:50:00;102609.99999999999;;;17.6;51.2
67345;BME280;54230;52.402;6.276;2023-04-08T13:55:00;102609.99999999999;;;17.7;51.3
67345;BME280;54230;52.402;6.276;2023-04-08T14:00:01;102620.0;;;17.7;50.8
67345;BME280;54230;52.402;6.276;2023-04-08T14:05:00;102609.99999999999;;;17.5;51.3
67345;BME280;54230;52.402;6.276;2023-04-08T14:10:00;102609.99999999999;;;17.3;51.5
67345;BME280;54230;52.402;6.276;2023-04-08T14:15:00;102600.0;;;17.5;51.5
67345;BME280;54230;52.402;6.276;2023-04-08T14:20:00;102600.0;;;17.6;51.6
67345;BME280;54230;52.402;6.276;2023-04-08T14:25:00;102590.00000000001;;;17.9;50.9
67345;BME280;54230;52.402;6.276;2023-04-08T14:30:00;102600.0;;;17.8;51.0
67345;BME280;54230;52.402;6.276;2023-04-08T14:35:00;102600.0;;;17.6;51.2
67345;BME280;54230;52.402;6.276;2023-04-08T14:40:00;102600.0;;;17.4;52.1
67345;BME280;54230;52.402;6.276;2023-04-08T14:45:00;102590.00000000001;;;17.5;51.7
67345;BME280;54230;52.402;6.276;2023-04-08T14:50:00;102580.0;;;17.8;50.9
67345;BME280;54230;52.402;6.276;2023-04-08T14:55:00;102580.0;;;17.7;50.9
67345;BME280;54230;52.402;6.276;2023-04-08T15:00:00;102580.0;;;17.7;51.1
67345;BME280;54230;52.402;6.276;2023-04-08T15:05:00;102580.0;;;17.7;51.2
67345;BME280;54230;52.402;6.276;2023-04-08T15:10:00;102570.0;;;17.9;51.0
67345;BME280;54230;52.402;6.276;2023-04-08T15:15:00;102570.0;;;17.9;50.4
67345;BME280;54230;52.402;6.276;2023-04-08T15:20:00;102580.0;;;17.5;51.0
67345;BME280;54230;52.402;6.276;2023-04-08T15:25:00;102580.0;;;17.4;52.0
67345;BME280;54230;52.402;6.276;2023-04-08T15:30:00;102590.00000000001;;;17.5;52.1
67345;BME280;54230;52.402;6.276;2023-04-08T15:35:00;102580.0;;;17.1;52.6
67345;BME280;54230;52.402;6.276;2023-04-08T15:40:00;102590.00000000001;;;17.0;53.1
67345;BME280;54230;52.402;6.276;2023-04-08T15:45:02;102590.00000000001;;;16.9;53.3
67345;BME280;54230;52.402;6.276;2023-04-08T15:50:00;102600.0;;;16.9;52.9
67345;BME280;54230;52.402;6.276;2023-04-08T15:55:00;102600.0;;;17.0;53.7
67345;BME280;54230;52.402;6.276;2023-04-08T16:00:00;102600.0;;;16.9;53.6
67345;BME280;54230;52.402;6.276;2023-04-08T16:05:00;102609.99999999999;;;16.6;54.6
67345;BME280;54230;52.402;6.276;2023-04-08T16:10:00;102609.99999999999;;;16.6;55.5
67345;BME280;54230;52.402;6.276;2023-04-08T16:15:00;102609.99999999999;;;16.4;55.1
67345;BME280;54230;52.402;6.276;2023-04-08T16:20:00;102609.99999999999;;;16.1;58.1
67345;BME280;54230;52.402;6.276;2023-04-08T16:25:00;102620.0;;;15.9;57.6
67345;BME280;54230;52.402;6.276;2023-04-08T16:30:00;102609.99999999999;;;15.9;57.8
67345;BME280;54230;52.402;6.276;2023-04-08T16:35:00;102609.99999999999;;;15.6;57.7
67345;BME280;54230;52.402;6.276;2023-04-08T16:40:00;102609.99999999999;;;15.4;57.8
67345;BME280;54230;52.402;6.276;2023-04-08T16:45:00;102620.0;;;15.3;58.2
67345;BME280;54230;52.402;6.276;2023-04-08T16:50:00;102620.0;;;15.3;58.3
67345;BME280;54230;52.402;6.276;2023-04-08T16:55:00;102620.0;;;15.4;58.3
67345;BME280;54230;52.402;6.276;2023-04-08T17:00:00;102630.0;;;15.7;58.1
67345;BME280;54230;52.402;6.276;2023-04-08T17:05:00;102630.0;;;15.7;57.6
67345;BME280;54230;52.402;6.276;2023-04-08T17:10:00;102620.0;;;15.4;57.5
67345;BME280;54230;52.402;6.276;2023-04-08T17:15:00;102630.0;;;15.1;57.9
67345;BME280;54230;52.402;6.276;2023-04-08T17:20:00;102630.0;;;15.2;59.6
67345;BME280;54230;52.402;6.276;2023-04-08T17:25:00;102640.00000000001;;;15.3;59.9
67345;BME280;54230;52.402;6.276;2023-04-08T17:30:00;102640.00000000001;;;15.1;58.8
67345;BME280;54230;52.402;6.276;2023-04-08T17:35:00;102640.00000000001;;;14.5;59.3
67345;BME280;54230;52.402;6.276;2023-04-08T17:40:00;102640.00000000001;;;14.3;60.4
67345;BME280;54230;52.402;6.276;2023-04-08T17:45:00;102650.0;;;14.2;60.9
67345;BME280;54230;52.402;6.276;2023-04-08T17:50:00;102650.0;;;13.9;63.0
67345;BME280;54230;52.402;6.276;2023-04-08T17:55:00;102650.0;;;13.9;63.3
67345;BME280;54230;52.402;6.276;2023-04-08T18:00:00;102650.0;;;13.9;62.3
67345;BME280;54230;52.402;6.276;2023-04-08T18:05:00;102650.0;;;13.9;62.6
67345;BME280;54230;52.402;6.276;2023-04-08T18:10:00;102659.99999999999;;;13.6;63.8
67345;BME280;54230;52.402;6.276;2023-04-08T18:15:00;102659.99999999999;;;13.4;64.4
67345;BME280;54230;52.402;6.276;2023-04-08T18:20:00;102659.99999999999;;;13.3;65.2
67345;BME280;54230;52.402;6.276;2023-04-08T18:25:00;102659.99999999999;;;13.3;65.3
67345;BME280;54230;52.402;6.276;2023-04-08T18:30:00;102670.0;;;13.4;64.9
67345;BME280;54230;52.402;6.276;2023-04-08T18:35:00;102670.0;;;13.4;64.9
67345;BME280;54230;52.402;6.276;2023-04-08T18:40:00;102680.0;;;13.5;64.8
67345;BME280;54230;52.402;6.276;2023-04-08T18:45:00;102680.0;;;13.3;65.3
67345;BME280;54230;52.402;6.276;2023-04-08T18:50:00;102680.0;;;13.2;65.5
67345;BME280;54230;52.402;6.276;2023-04-08T18:55:00;102680.0;;;13.1;65.6
67345;BME280;54230;52.402;6.276;2023-04-08T19:00:00;102670.0;;;13.0;66.0
67345;BME280;54230;52.402;6.276;2023-04-08T19:05:00;102670.0;;;12.9;66.3
67345;BME280;54230;52.402;6.276;2023-04-08T19:10:00;102670.0;;;13.0;66.6
67345;BME280;54230;52.402;6.276;2023-04-08T19:15:00;102680.0;;;13.1;66.6
67345;BME280;54230;52.402;6.276;2023-04-08T19:20:00;102680.0;;;13.2;66.4
67345;BME280;54230;52.402;6.276;2023-04-08T19:25:00;102680.0;;;13.2;66.1
67345;BME280;54230;52.402;6.276;2023-04-08T19:30:00;102690.00000000001;;;13.3;65.6
67345;BME280;54230;52.402;6.276;2023-04-08T19:35:00;102690.00000000001;;;12.9;65.7
67345;BME280;54230;52.402;6.276;2023-04-08T19:40:00;102690.00000000001;;;12.9;66.4
67345;BME280;54230;52.402;6.276;2023-04-08T19:45:00;102690.00000000001;;;13.1;66.5
67345;BME280;54230;52.402;6.276;2023-04-08T19:50:00;102690.00000000001;;;13.0;66.1
67345;BME280;54230;52.402;6.276;2023-04-08T19:55:00;102700.0;;;13.0;66.6
67345;BME280;54230;52.402;6.276;2023-04-08T20:00:00;102700.0;;;13.0;66.3
67345;BME280;54230;52.402;6.276;2023-04-08T20:05:00;102700.0;;;12.8;67.0
67345;BME280;54230;52.402;6.276;2023-04-08T20:10:00;102709.99999999999;;;12.8;67.5
67345;BME280;54230;52.402;6.276;2023-04-08T20:15:00;102720.0;;;12.9;67.6
67345;BME280;54230;52.402;6.276;2023-04-08T20:20:00;102720.0;;;12.8;67.7
67345;BME280;54230;52.402;6.276;2023-04-08T20:25:00;102720.0;;;12.9;67.4
67345;BME280;54230;52.402;6.276;2023-04-08T20:30:00;102720.0;;;12.7;67.5
67345;BME280;54230;52.402;6.276;2023-04-08T20:35:00;102720.0;;;12.6;67.9
67345;BME280;54230;52.402;6.276;2023-04-08T20:40:00;102720.0;;;12.6;68.0
67345;BME280;54230;52.402;6.276;2023-04-08T20:45:00;102720.0;;;12.6;68.0
67345;BME280;54230;52.402;6.276;2023-04-08T20:50:00;102720.0;;;12.6;68.0
67345;BME280;54230;52.402;6.276;2023-04-08T20:55:00;102720.0;;;12.6;68.3
67345;BME280;54230;52.402;6.276;2023-04-08T21:00:00;102720.0;;;12.5;68.6
67345;BME280;54230;52.402;6.276;2023-04-08T21:05:00;102720.0;;;12.6;68.7
67345;BME280;54230;52.402;6.276;2023-04-08T21:10:00;102720.0;;;12.7;69.6
67345;BME280;54230;52.402;6.276;2023-04-08T21:15:00;102709.99999999999;;;12.8;68.7
67345;BME280;54230;52.402;6.276;2023-04-08T21:20:00;102709.99999999999;;;12.8;68.6
67345;BME280;54230;52.402;6.276;2023-04-08T21:25:00;102709.99999999999;;;12.7;68.5
67345;BME280;54230;52.402;6.276;2023-04-08T21:30:00;102709.99999999999;;;12.8;68.6
67345;BME280;54230;52.402;6.276;2023-04-08T21:35:00;102720.0;;;12.9;68.5
67345;BME280;54230;52.402;6.276;2023-04-08T21:40:00;102709.99999999999;;;13.1;68.7
67345;BME280;54230;52.402;6.276;2023-04-08T21:45:00;102709.99999999999;;;13.0;68.6
67345;BME280;54230;52.402;6.276;2023-04-08T21:50:00;102709.99999999999;;;12.9;68.1
67345;BME280;54230;52.402;6.276;2023-04-08T21:55:00;102709.99999999999;;;12.9;68.6
67345;BME280;54230;52.402;6.276;2023-04-08T22:00:00;102709.99999999999;;;12.9;68.8
67345;BME280;54230;52.402;6.276;2023-04-08T22:05:00;102709.99999999999;;;13.1;69.0
67345;BME280;54230;52.402;6.276;2023-04-08T22:10:00;102709.99999999999;;;13.2;68.6
67345;BME280;54230;52.402;6.276;2023-04-08T22:15:00;102709.99999999999;;;13.2;68.0
67345;BME280;54230;52.402;6.276;2023-04-08T22:20:00;102709.99999999999;;;13.2;67.5
67345;BME280;54230;52.402;6.276;2023-04-08T22:25:00;102720.0;;;13.3;67.2
67345;BME280;54230;52.402;6.276;2023-04-08T22:30:00;102720.0;;;13.1;66.8
67345;BME280;54230;52.402;6.276;2023-04-08T22:35:00;102720.0;;;13.1;66.9
67345;BME280;54230;52.402;6.276;2023-04-08T22:40:00;102720.0;;;13.2;66.9
67345;BME280;54230;52.402;6.276;2023-04-08T22:45:00;102709.99999999999;;;13.2;67.7
67345;BME280;54230;52.402;6.276;2023-04-08T22:50:00;102709.99999999999;;;13.3;66.9
67345;BME280;54230;52.402;6.276;2023-04-08T22:55:00;102720.0;;;13.2;66.1
67345;BME280;54230;52.402;6.276;2023-04-08T23:00:00;102709.99999999999;;;13.1;67.9
67345;BME280;54230;52.402;6.276;2023-04-08T23:05:00;102709.99999999999;;;13.2;67.5
67345;BME280;54230;52.402;6.276;2023-04-08T23:10:00;102709.99999999999;;;13.2;67.7
67345;BME280;54230;52.402;6.276;2023-04-08T23:15:00;102709.99999999999;;;13.2;67.5
67345;BME280;54230;52.402;6.276;2023-04-08T23:20:00;102700.0;;;13.2;66.7
67345;BME280;54230;52.402;6.276;2023-04-08T23:25:00;102690.00000000001;;;13.1;67.2
67345;BME280;54230;52.402;6.276;2023-04-08T23:30:00;102690.00000000001;;;13.0;67.9
67345;BME280;54230;52.402;6.276;2023-04-08T23:35:00;102690.00000000001;;;13.0;68.8
67345;BME280;54230;52.402;6.276;2023-04-08T23:40:00;102690.00000000001;;;12.9;68.3
67345;BME280;54230;52.402;6.276;2023-04-08T23:45:00;102690.00000000001;;;12.9;68.6
67345;BME280;54230;52.402;6.276;2023-04-08T23:50:00;102690.00000000001;;;12.8;68.3
67345;BME280;54230;52.402;6.276;2023-04-08T23:55:00;102690.00000000001;;;12.8;68.8
